sensor_id;sensor_type;location;lat;lon;timestamp;P1;durP1;ratioP1;P2;durP2;ratioP2
8857;SDS011;4465;50.904;4.696;2023-08-20T00:00:51;9.07;;;2.60;;
8857;SDS011;4465;50.904;4.696;2023-08-20T00:03:20;4.88;;;1.88;;
8857;SDS011;4465;50.904;4.696;2023-08-20T00:05:49;9.35;;;2.13;;
8857;SDS011;4465;50.904;4.696;2023-08-20T00:08:17;8.27;;;1.88;;
8857;SDS011;4465;50.904;4.696;2023-08-20T00:10:45;6.18;;;2.33;;
8857;SDS011;4465;50.904;4.696;2023-08-20T00:13:12;7.00;;;1.80;;
8857;SDS011;4465;50.904;4.696;2023-08-20T00:15:38;8.75;;;1.85;;
8857;SDS011;4465;50.904;4.696;2023-08-20T00:18:06;5.28;;;1.90;;
8857;SDS011;4465;50.904;4.696;2023-08-20T00:20:32;4.82;;;1.83;;
8857;SDS011;4465;50.904;4.696;2023-08-20T00:22:59;9.15;;;2.13;;
8857;SDS011;4465;50.904;4.696;2023-08-20T00:25:27;8.77;;;2.15;;
8857;SDS011;4465;50.904;4.696;2023-08-20T00:27:53;7.80;;;2.25;;
8857;SDS011;4465;50.904;4.696;2023-08-20T00:30:19;9.13;;;2.38;;
8857;SDS011;4465;50.904;4.696;2023-08-20T00:32:48;7.03;;;2.00;;
8857;SDS011;4465;50.904;4.696;2023-08-20T00:35:14;4.30;;;1.75;;
8857;SDS011;4465;50.904;4.696;2023-08-20T00:37:40;3.97;;;1.70;;
8857;SDS011;4465;50.904;4.696;2023-08-20T00:40:08;4.22;;;1.80;;
8857;SDS011;4465;50.904;4.696;2023-08-20T00:42:35;4.17;;;1.90;;
8857;SDS011;4465;50.904;4.696;2023-08-20T00:45:03;11.57;;;1.80;;
8857;SDS011;4465;50.904;4.696;2023-08-20T00:47:30;7.35;;;2.00;;
8857;SDS011;4465;50.904;4.696;2023-08-20T00:49:56;4.63;;;1.85;;
8857;SDS011;4465;50.904;4.696;2023-08-20T00:52:22;6.35;;;1.85;;
8857;SDS011;4465;50.904;4.696;2023-08-20T00:54:49;7.10;;;1.90;;
8857;SDS011;4465;50.904;4.696;2023-08-20T00:57:17;4.93;;;1.80;;
8857;SDS011;4465;50.904;4.696;2023-08-20T00:59:49;9.70;;;1.92;;
8857;SDS011;4465;50.904;4.696;2023-08-20T01:02:16;4.25;;;1.90;;
8857;SDS011;4465;50.904;4.696;2023-08-20T01:04:43;7.20;;;2.00;;
8857;SDS011;4465;50.904;4.696;2023-08-20T01:12:26;9.05;;;2.05;;
8857;SDS011;4465;50.904;4.696;2023-08-20T01:14:54;4.68;;;1.90;;
8857;SDS011;4465;50.904;4.696;2023-08-20T01:17:20;5.55;;;1.98;;
8857;SDS011;4465;50.904;4.696;2023-08-20T01:19:46;9.10;;;1.83;;
8857;SDS011;4465;50.904;4.696;2023-08-20T01:25:18;6.15;;;1.70;;
8857;SDS011;4465;50.904;4.696;2023-08-20T01:28:29;7.78;;;2.30;;
8857;SDS011;4465;50.904;4.696;2023-08-20T01:30:55;5.35;;;2.28;;
8857;SDS011;4465;50.904;4.696;2023-08-20T01:33:23;11.27;;;2.28;;
8857;SDS011;4465;50.904;4.696;2023-08-20T01:35:51;5.88;;;2.15;;
8857;SDS011;4465;50.904;4.696;2023-08-20T01:38:18;5.22;;;2.17;;
8857;SDS011;4465;50.904;4.696;2023-08-20T01:40:44;5.60;;;2.00;;
8857;SDS011;4465;50.904;4.696;2023-08-20T01:43:10;10.77;;;2.05;;
8857;SDS011;4465;50.904;4.696;2023-08-20T01:45:36;5.80;;;1.95;;
8857;SDS011;4465;50.904;4.696;2023-08-20T01:48:05;5.35;;;2.08;;
8857;SDS011;4465;50.904;4.696;2023-08-20T01:50:31;6.43;;;1.98;;
8857;SDS011;4465;50.904;4.696;2023-08-20T01:53:00;5.10;;;2.28;;
8857;SDS011;4465;50.904;4.696;2023-08-20T01:55:26;7.70;;;2.55;;
8857;SDS011;4465;50.904;4.696;2023-08-20T01:57:52;7.38;;;2.40;;
8857;SDS011;4465;50.904;4.696;2023-08-20T02:00:18;4.35;;;2.00;;
8857;SDS011;4465;50.904;4.696;2023-08-20T02:02:44;8.52;;;2.22;;
8857;SDS011;4465;50.904;4.696;2023-08-20T02:05:10;6.68;;;2.28;;
8857;SDS011;4465;50.904;4.696;2023-08-20T02:07:36;8.98;;;2.47;;
8857;SDS011;4465;50.904;4.696;2023-08-20T02:10:02;5.45;;;1.80;;
8857;SDS011;4465;50.904;4.696;2023-08-20T02:12:28;6.20;;;2.00;;
8857;SDS011;4465;50.904;4.696;2023-08-20T02:14:54;5.60;;;1.90;;
8857;SDS011;4465;50.904;4.696;2023-08-20T02:17:20;7.40;;;2.00;;
8857;SDS011;4465;50.904;4.696;2023-08-20T02:19:46;8.00;;;2.58;;
8857;SDS011;4465;50.904;4.696;2023-08-20T02:22:12;9.02;;;2.00;;
8857;SDS011;4465;50.904;4.696;2023-08-20T02:24:40;6.53;;;2.03;;
8857;SDS011;4465;50.904;4.696;2023-08-20T02:27:06;5.22;;;2.00;;
8857;SDS011;4465;50.904;4.696;2023-08-20T02:29:32;4.38;;;2.05;;
8857;SDS011;4465;50.904;4.696;2023-08-20T02:31:58;9.07;;;2.05;;
8857;SDS011;4465;50.904;4.696;2023-08-20T02:34:24;5.28;;;2.08;;
8857;SDS011;4465;50.904;4.696;2023-08-20T02:36:50;6.85;;;2.20;;
8857;SDS011;4465;50.904;4.696;2023-08-20T02:39:16;13.32;;;2.30;;
8857;SDS011;4465;50.904;4.696;2023-08-20T02:41:45;9.68;;;2.33;;
8857;SDS011;4465;50.904;4.696;2023-08-20T02:44:14;9.20;;;2.35;;
8857;SDS011;4465;50.904;4.696;2023-08-20T02:46:44;7.60;;;2.30;;
8857;SDS011;4465;50.904;4.696;2023-08-20T02:49:10;10.20;;;2.28;;
8857;SDS011;4465;50.904;4.696;2023-08-20T02:51:37;9.00;;;2.30;;
8857;SDS011;4465;50.904;4.696;2023-08-20T02:54:03;10.35;;;2.35;;
8857;SDS011;4465;50.904;4.696;2023-08-20T02:56:31;7.47;;;2.20;;
8857;SDS011;4465;50.904;4.696;2023-08-20T02:58:59;4.72;;;1.95;;
8857;SDS011;4465;50.904;4.696;2023-08-20T03:01:27;7.35;;;1.88;;
8857;SDS011;4465;50.904;4.696;2023-08-20T03:03:53;4.15;;;1.98;;
8857;SDS011;4465;50.904;4.696;2023-08-20T03:06:19;4.22;;;1.80;;
8857;SDS011;4465;50.904;4.696;2023-08-20T03:08:45;6.82;;;1.65;;
8857;SDS011;4465;50.904;4.696;2023-08-20T03:11:11;6.07;;;2.15;;
8857;SDS011;4465;50.904;4.696;2023-08-20T03:13:37;5.05;;;1.88;;
8857;SDS011;4465;50.904;4.696;2023-08-20T03:16:05;9.85;;;2.45;;
8857;SDS011;4465;50.904;4.696;2023-08-20T03:18:31;6.57;;;2.33;;
8857;SDS011;4465;50.904;4.696;2023-08-20T03:20:59;9.25;;;2.15;;
8857;SDS011;4465;50.904;4.696;2023-08-20T03:23:28;8.38;;;2.30;;
8857;SDS011;4465;50.904;4.696;2023-08-20T03:25:57;5.40;;;1.90;;
8857;SDS011;4465;50.904;4.696;2023-08-20T03:28:24;7.53;;;2.22;;
8857;SDS011;4465;50.904;4.696;2023-08-20T03:30:50;6.63;;;2.35;;
8857;SDS011;4465;50.904;4.696;2023-08-20T03:33:16;6.93;;;2.33;;
8857;SDS011;4465;50.904;4.696;2023-08-20T03:35:42;5.95;;;2.00;;
8857;SDS011;4465;50.904;4.696;2023-08-20T03:38:08;6.20;;;2.20;;
8857;SDS011;4465;50.904;4.696;2023-08-20T03:40:36;7.38;;;2.30;;
8857;SDS011;4465;50.904;4.696;2023-08-20T03:43:02;4.32;;;1.77;;
8857;SDS011;4465;50.904;4.696;2023-08-20T03:45:28;4.55;;;2.17;;
8857;SDS011;4465;50.904;4.696;2023-08-20T03:47:55;5.28;;;2.55;;
8857;SDS011;4465;50.904;4.696;2023-08-20T03:50:21;10.02;;;2.60;;
8857;SDS011;4465;50.904;4.696;2023-08-20T03:52:47;7.35;;;2.30;;
8857;SDS011;4465;50.904;4.696;2023-08-20T03:55:13;13.07;;;2.53;;
8857;SDS011;4465;50.904;4.696;2023-08-20T03:57:39;6.28;;;2.10;;
8857;SDS011;4465;50.904;4.696;2023-08-20T04:00:05;7.93;;;2.53;;
8857;SDS011;4465;50.904;4.696;2023-08-20T04:02:34;5.28;;;2.03;;
8857;SDS011;4465;50.904;4.696;2023-08-20T04:05:00;4.78;;;2.15;;
8857;SDS011;4465;50.904;4.696;2023-08-20T04:07:26;8.05;;;2.45;;
8857;SDS011;4465;50.904;4.696;2023-08-20T04:09:54;6.55;;;2.30;;
8857;SDS011;4465;50.904;4.696;2023-08-20T04:12:20;6.40;;;2.30;;
8857;SDS011;4465;50.904;4.696;2023-08-20T04:14:46;7.78;;;2.20;;
8857;SDS011;4465;50.904;4.696;2023-08-20T04:17:17;9.00;;;2.42;;
8857;SDS011;4465;50.904;4.696;2023-08-20T04:19:44;6.00;;;2.22;;
8857;SDS011;4465;50.904;4.696;2023-08-20T04:22:09;7.85;;;2.20;;
8857;SDS011;4465;50.904;4.696;2023-08-20T04:24:38;5.35;;;2.03;;
8857;SDS011;4465;50.904;4.696;2023-08-20T04:27:04;5.77;;;2.27;;
8857;SDS011;4465;50.904;4.696;2023-08-20T04:29:31;5.50;;;2.20;;
8857;SDS011;4465;50.904;4.696;2023-08-20T04:31:59;9.20;;;3.00;;
8857;SDS011;4465;50.904;4.696;2023-08-20T04:34:25;5.90;;;2.47;;
8857;SDS011;4465;50.904;4.696;2023-08-20T04:36:50;5.47;;;2.35;;
8857;SDS011;4465;50.904;4.696;2023-08-20T04:39:19;10.10;;;2.50;;
8857;SDS011;4465;50.904;4.696;2023-08-20T04:41:47;4.55;;;2.17;;
8857;SDS011;4465;50.904;4.696;2023-08-20T04:44:15;6.75;;;2.38;;
8857;SDS011;4465;50.904;4.696;2023-08-20T04:46:44;5.53;;;2.08;;
8857;SDS011;4465;50.904;4.696;2023-08-20T04:49:12;6.45;;;2.10;;
8857;SDS011;4465;50.904;4.696;2023-08-20T04:51:38;5.28;;;2.30;;
8857;SDS011;4465;50.904;4.696;2023-08-20T04:54:04;11.57;;;2.30;;
8857;SDS011;4465;50.904;4.696;2023-08-20T04:56:30;11.52;;;2.33;;
8857;SDS011;4465;50.904;4.696;2023-08-20T04:58:56;5.90;;;2.08;;
8857;SDS011;4465;50.904;4.696;2023-08-20T05:01:22;8.73;;;2.67;;
8857;SDS011;4465;50.904;4.696;2023-08-20T05:03:48;6.07;;;2.20;;
8857;SDS011;4465;50.904;4.696;2023-08-20T05:06:14;6.57;;;2.25;;
8857;SDS011;4465;50.904;4.696;2023-08-20T05:08:40;4.28;;;1.95;;
8857;SDS011;4465;50.904;4.696;2023-08-20T05:11:06;6.60;;;2.30;;
8857;SDS011;4465;50.904;4.696;2023-08-20T05:13:32;4.95;;;2.42;;
8857;SDS011;4465;50.904;4.696;2023-08-20T05:15:57;11.68;;;2.33;;
8857;SDS011;4465;50.904;4.696;2023-08-20T05:18:23;3.63;;;1.92;;
8857;SDS011;4465;50.904;4.696;2023-08-20T05:20:49;5.13;;;2.15;;
8857;SDS011;4465;50.904;4.696;2023-08-20T05:23:18;4.20;;;2.22;;
8857;SDS011;4465;50.904;4.696;2023-08-20T05:25:44;8.07;;;2.40;;
8857;SDS011;4465;50.904;4.696;2023-08-20T05:28:12;6.95;;;2.50;;
8857;SDS011;4465;50.904;4.696;2023-08-20T05:30:38;6.93;;;2.42;;
8857;SDS011;4465;50.904;4.696;2023-08-20T05:33:04;6.00;;;2.33;;
8857;SDS011;4465;50.904;4.696;2023-08-20T05:35:30;8.60;;;2.60;;
8857;SDS011;4465;50.904;4.696;2023-08-20T05:37:56;8.45;;;2.83;;
8857;SDS011;4465;50.904;4.696;2023-08-20T05:40:24;6.05;;;2.38;;
8857;SDS011;4465;50.904;4.696;2023-08-20T05:42:52;6.68;;;2.40;;
8857;SDS011;4465;50.904;4.696;2023-08-20T05:45:20;6.28;;;2.75;;
8857;SDS011;4465;50.904;4.696;2023-08-20T05:47:50;12.77;;;2.80;;
8857;SDS011;4465;50.904;4.696;2023-08-20T05:50:16;9.98;;;2.50;;
8857;SDS011;4465;50.904;4.696;2023-08-20T05:52:42;10.30;;;2.58;;
8857;SDS011;4465;50.904;4.696;2023-08-20T05:55:08;5.15;;;2.53;;
8857;SDS011;4465;50.904;4.696;2023-08-20T05:57:35;6.38;;;2.70;;
8857;SDS011;4465;50.904;4.696;2023-08-20T06:00:03;9.55;;;2.78;;
8857;SDS011;4465;50.904;4.696;2023-08-20T06:04:55;6.65;;;2.65;;
8857;SDS011;4465;50.904;4.696;2023-08-20T06:07:21;6.30;;;3.00;;
8857;SDS011;4465;50.904;4.696;2023-08-20T06:09:47;6.43;;;2.58;;
8857;SDS011;4465;50.904;4.696;2023-08-20T06:12:16;8.40;;;2.88;;
8857;SDS011;4465;50.904;4.696;2023-08-20T06:14:42;10.10;;;3.63;;
8857;SDS011;4465;50.904;4.696;2023-08-20T06:17:08;10.10;;;3.35;;
8857;SDS011;4465;50.904;4.696;2023-08-20T06:19:34;7.90;;;3.38;;
8857;SDS011;4465;50.904;4.696;2023-08-20T06:22:02;8.48;;;2.70;;
8857;SDS011;4465;50.904;4.696;2023-08-20T06:24:28;6.20;;;3.10;;
8857;SDS011;4465;50.904;4.696;2023-08-20T06:26:54;12.57;;;3.17;;
8857;SDS011;4465;50.904;4.696;2023-08-20T06:29:19;10.48;;;3.00;;
8857;SDS011;4465;50.904;4.696;2023-08-20T06:31:47;11.88;;;3.17;;
8857;SDS011;4465;50.904;4.696;2023-08-20T06:34:14;10.57;;;3.35;;
8857;SDS011;4465;50.904;4.696;2023-08-20T06:36:42;8.32;;;2.70;;
8857;SDS011;4465;50.904;4.696;2023-08-20T06:39:08;8.07;;;2.60;;
8857;SDS011;4465;50.904;4.696;2023-08-20T06:41:34;12.77;;;2.78;;
8857;SDS011;4465;50.904;4.696;2023-08-20T06:44:04;5.82;;;2.65;;
8857;SDS011;4465;50.904;4.696;2023-08-20T06:46:30;10.55;;;2.95;;
8857;SDS011;4465;50.904;4.696;2023-08-20T06:48:55;8.13;;;2.42;;
8857;SDS011;4465;50.904;4.696;2023-08-20T06:51:22;5.82;;;2.45;;
8857;SDS011;4465;50.904;4.696;2023-08-20T06:53:48;5.03;;;2.15;;
8857;SDS011;4465;50.904;4.696;2023-08-20T06:56:14;7.70;;;2.13;;
8857;SDS011;4465;50.904;4.696;2023-08-20T06:58:40;4.15;;;1.83;;
8857;SDS011;4465;50.904;4.696;2023-08-20T07:01:10;5.85;;;1.73;;
8857;SDS011;4465;50.904;4.696;2023-08-20T07:03:38;5.38;;;1.70;;
8857;SDS011;4465;50.904;4.696;2023-08-20T07:06:06;7.05;;;1.92;;
8857;SDS011;4465;50.904;4.696;2023-08-20T07:08:34;8.10;;;2.08;;
8857;SDS011;4465;50.904;4.696;2023-08-20T07:11:02;7.65;;;1.20;;
8857;SDS011;4465;50.904;4.696;2023-08-20T07:13:28;7.00;;;1.77;;
8857;SDS011;4465;50.904;4.696;2023-08-20T07:15:54;6.20;;;1.20;;
8857;SDS011;4465;50.904;4.696;2023-08-20T07:18:20;6.30;;;1.52;;
8857;SDS011;4465;50.904;4.696;2023-08-20T07:20:46;6.18;;;1.20;;
8857;SDS011;4465;50.904;4.696;2023-08-20T07:23:14;7.13;;;1.27;;
8857;SDS011;4465;50.904;4.696;2023-08-20T07:25:40;4.95;;;1.30;;
8857;SDS011;4465;50.904;4.696;2023-08-20T07:28:10;2.45;;;0.95;;
8857;SDS011;4465;50.904;4.696;2023-08-20T07:30:36;4.60;;;1.30;;
8857;SDS011;4465;50.904;4.696;2023-08-20T07:33:02;3.47;;;1.30;;
8857;SDS011;4465;50.904;4.696;2023-08-20T07:35:29;3.63;;;1.08;;
8857;SDS011;4465;50.904;4.696;2023-08-20T07:37:55;2.60;;;0.90;;
8857;SDS011;4465;50.904;4.696;2023-08-20T07:40:20;4.63;;;1.20;;
8857;SDS011;4465;50.904;4.696;2023-08-20T07:42:49;5.68;;;1.23;;
8857;SDS011;4465;50.904;4.696;2023-08-20T07:45:17;1.85;;;0.82;;
8857;SDS011;4465;50.904;4.696;2023-08-20T07:47:43;4.32;;;1.17;;
8857;SDS011;4465;50.904;4.696;2023-08-20T07:50:11;3.92;;;1.08;;
8857;SDS011;4465;50.904;4.696;2023-08-20T07:52:37;3.25;;;1.25;;
8857;SDS011;4465;50.904;4.696;2023-08-20T07:55:03;4.57;;;0.93;;
8857;SDS011;4465;50.904;4.696;2023-08-20T07:57:29;3.35;;;0.90;;
8857;SDS011;4465;50.904;4.696;2023-08-20T07:59:55;3.80;;;0.90;;
8857;SDS011;4465;50.904;4.696;2023-08-20T08:02:21;1.88;;;0.60;;
8857;SDS011;4465;50.904;4.696;2023-08-20T08:04:47;4.35;;;1.00;;
8857;SDS011;4465;50.904;4.696;2023-08-20T08:07:13;4.00;;;0.90;;
8857;SDS011;4465;50.904;4.696;2023-08-20T08:09:39;2.35;;;1.00;;
8857;SDS011;4465;50.904;4.696;2023-08-20T08:12:05;3.53;;;0.88;;
8857;SDS011;4465;50.904;4.696;2023-08-20T08:14:31;2.50;;;0.65;;
8857;SDS011;4465;50.904;4.696;2023-08-20T08:16:59;3.85;;;1.00;;
8857;SDS011;4465;50.904;4.696;2023-08-20T08:19:25;2.92;;;0.70;;
8857;SDS011;4465;50.904;4.696;2023-08-20T08:22:00;3.03;;;1.00;;
8857;SDS011;4465;50.904;4.696;2023-08-20T08:24:32;1.67;;;0.90;;
8857;SDS011;4465;50.904;4.696;2023-08-20T08:27:00;5.10;;;1.08;;
8857;SDS011;4465;50.904;4.696;2023-08-20T08:29:26;2.10;;;0.90;;
8857;SDS011;4465;50.904;4.696;2023-08-20T08:31:52;2.47;;;1.05;;
8857;SDS011;4465;50.904;4.696;2023-08-20T08:34:20;3.47;;;1.00;;
8857;SDS011;4465;50.904;4.696;2023-08-20T08:36:46;3.93;;;1.20;;
8857;SDS011;4465;50.904;4.696;2023-08-20T08:39:12;2.83;;;1.17;;
8857;SDS011;4465;50.904;4.696;2023-08-20T08:41:38;2.92;;;0.98;;
8857;SDS011;4465;50.904;4.696;2023-08-20T08:44:07;2.10;;;0.85;;
8857;SDS011;4465;50.904;4.696;2023-08-20T08:46:37;2.92;;;1.30;;
8857;SDS011;4465;50.904;4.696;2023-08-20T08:49:04;5.30;;;2.10;;
8857;SDS011;4465;50.904;4.696;2023-08-20T08:51:33;7.32;;;1.73;;
8857;SDS011;4465;50.904;4.696;2023-08-20T08:54:02;4.70;;;2.10;;
8857;SDS011;4465;50.904;4.696;2023-08-20T08:56:28;5.10;;;1.90;;
8857;SDS011;4465;50.904;4.696;2023-08-20T08:58:54;6.10;;;1.92;;
8857;SDS011;4465;50.904;4.696;2023-08-20T09:01:22;4.93;;;1.77;;
8857;SDS011;4465;50.904;4.696;2023-08-20T09:03:48;3.60;;;1.70;;
8857;SDS011;4465;50.904;4.696;2023-08-20T09:06:14;3.97;;;1.60;;
8857;SDS011;4465;50.904;4.696;2023-08-20T09:08:40;9.65;;;1.92;;
8857;SDS011;4465;50.904;4.696;2023-08-20T09:11:06;3.03;;;1.40;;
8857;SDS011;4465;50.904;4.696;2023-08-20T09:13:36;4.82;;;1.75;;
8857;SDS011;4465;50.904;4.696;2023-08-20T09:16:03;3.67;;;1.58;;
8857;SDS011;4465;50.904;4.696;2023-08-20T09:18:37;3.53;;;1.75;;
8857;SDS011;4465;50.904;4.696;2023-08-20T09:21:07;3.00;;;1.10;;
8857;SDS011;4465;50.904;4.696;2023-08-20T09:23:34;2.70;;;1.10;;
8857;SDS011;4465;50.904;4.696;2023-08-20T09:26:03;2.38;;;1.30;;
8857;SDS011;4465;50.904;4.696;2023-08-20T09:28:40;4.40;;;0.98;;
8857;SDS011;4465;50.904;4.696;2023-08-20T09:31:10;1.63;;;0.90;;
8857;SDS011;4465;50.904;4.696;2023-08-20T09:33:48;4.65;;;1.38;;
8857;SDS011;4465;50.904;4.696;2023-08-20T09:36:18;1.75;;;0.65;;
8857;SDS011;4465;50.904;4.696;2023-08-20T09:38:44;2.30;;;0.98;;
8857;SDS011;4465;50.904;4.696;2023-08-20T09:41:12;3.85;;;1.25;;
8857;SDS011;4465;50.904;4.696;2023-08-20T09:43:38;1.92;;;0.93;;
8857;SDS011;4465;50.904;4.696;2023-08-20T09:46:10;4.38;;;1.02;;
8857;SDS011;4465;50.904;4.696;2023-08-20T09:48:36;1.67;;;1.00;;
8857;SDS011;4465;50.904;4.696;2023-08-20T09:51:08;1.92;;;1.00;;
8857;SDS011;4465;50.904;4.696;2023-08-20T09:53:37;3.13;;;1.20;;
8857;SDS011;4465;50.904;4.696;2023-08-20T09:56:19;4.88;;;1.30;;
8857;SDS011;4465;50.904;4.696;2023-08-20T09:58:53;3.28;;;1.67;;
8857;SDS011;4465;50.904;4.696;2023-08-20T10:01:19;2.38;;;1.05;;
8857;SDS011;4465;50.904;4.696;2023-08-20T10:03:46;3.45;;;1.27;;
8857;SDS011;4465;50.904;4.696;2023-08-20T10:06:14;2.05;;;1.02;;
8857;SDS011;4465;50.904;4.696;2023-08-20T10:08:39;4.30;;;1.20;;
8857;SDS011;4465;50.904;4.696;2023-08-20T10:11:06;1.50;;;1.00;;
8857;SDS011;4465;50.904;4.696;2023-08-20T10:13:32;3.05;;;1.15;;
8857;SDS011;4465;50.904;4.696;2023-08-20T10:15:58;5.25;;;1.05;;
8857;SDS011;4465;50.904;4.696;2023-08-20T10:18:26;4.13;;;1.23;;
8857;SDS011;4465;50.904;4.696;2023-08-20T10:20:52;2.67;;;1.13;;
8857;SDS011;4465;50.904;4.696;2023-08-20T10:23:21;1.70;;;0.85;;
8857;SDS011;4465;50.904;4.696;2023-08-20T10:25:52;3.10;;;1.00;;
8857;SDS011;4465;50.904;4.696;2023-08-20T10:28:22;4.05;;;1.15;;
8857;SDS011;4465;50.904;4.696;2023-08-20T10:31:02;1.80;;;0.93;;
8857;SDS011;4465;50.904;4.696;2023-08-20T10:33:36;5.03;;;1.13;;
8857;SDS011;4465;50.904;4.696;2023-08-20T10:36:22;2.25;;;1.02;;
8857;SDS011;4465;50.904;4.696;2023-08-20T10:38:55;2.22;;;1.00;;
8857;SDS011;4465;50.904;4.696;2023-08-20T10:41:25;1.98;;;0.82;;
8857;SDS011;4465;50.904;4.696;2023-08-20T10:43:56;2.90;;;0.90;;
8857;SDS011;4465;50.904;4.696;2023-08-20T10:46:27;4.90;;;1.10;;
8857;SDS011;4465;50.904;4.696;2023-08-20T10:48:57;2.55;;;0.77;;
8857;SDS011;4465;50.904;4.696;2023-08-20T10:51:28;3.10;;;0.80;;
8857;SDS011;4465;50.904;4.696;2023-08-20T10:56:46;2.95;;;0.80;;
8857;SDS011;4465;50.904;4.696;2023-08-20T11:01:47;3.85;;;1.05;;
8857;SDS011;4465;50.904;4.696;2023-08-20T11:04:15;2.35;;;0.80;;
8857;SDS011;4465;50.904;4.696;2023-08-20T11:06:42;5.35;;;1.20;;
8857;SDS011;4465;50.904;4.696;2023-08-20T11:09:11;2.63;;;1.02;;
8857;SDS011;4465;50.904;4.696;2023-08-20T11:14:14;1.92;;;1.00;;
8857;SDS011;4465;50.904;4.696;2023-08-20T11:16:43;3.20;;;0.90;;
8857;SDS011;4465;50.904;4.696;2023-08-20T11:19:10;2.53;;;0.98;;
8857;SDS011;4465;50.904;4.696;2023-08-20T11:21:40;1.77;;;0.88;;
8857;SDS011;4465;50.904;4.696;2023-08-20T11:24:07;5.30;;;0.90;;
8857;SDS011;4465;50.904;4.696;2023-08-20T11:26:34;2.75;;;1.10;;
8857;SDS011;4465;50.904;4.696;2023-08-20T11:29:08;5.90;;;1.30;;
8857;SDS011;4465;50.904;4.696;2023-08-20T11:31:35;3.72;;;0.90;;
8857;SDS011;4465;50.904;4.696;2023-08-20T11:34:05;2.53;;;0.80;;
8857;SDS011;4465;50.904;4.696;2023-08-20T11:36:33;2.55;;;1.10;;
8857;SDS011;4465;50.904;4.696;2023-08-20T11:39:00;3.67;;;1.00;;
8857;SDS011;4465;50.904;4.696;2023-08-20T11:41:29;2.17;;;0.82;;
8857;SDS011;4465;50.904;4.696;2023-08-20T11:43:57;2.50;;;0.80;;
8857;SDS011;4465;50.904;4.696;2023-08-20T11:46:25;1.95;;;0.75;;
8857;SDS011;4465;50.904;4.696;2023-08-20T11:49:09;1.57;;;0.83;;
8857;SDS011;4465;50.904;4.696;2023-08-20T11:51:40;3.58;;;1.08;;
8857;SDS011;4465;50.904;4.696;2023-08-20T11:54:08;2.65;;;0.90;;
8857;SDS011;4465;50.904;4.696;2023-08-20T11:56:36;2.65;;;0.75;;
8857;SDS011;4465;50.904;4.696;2023-08-20T11:59:10;2.38;;;1.00;;
8857;SDS011;4465;50.904;4.696;2023-08-20T12:01:37;1.88;;;0.90;;
8857;SDS011;4465;50.904;4.696;2023-08-20T12:04:06;8.55;;;0.90;;
8857;SDS011;4465;50.904;4.696;2023-08-20T12:06:37;2.08;;;1.05;;
8857;SDS011;4465;50.904;4.696;2023-08-20T12:09:22;4.88;;;1.05;;
8857;SDS011;4465;50.904;4.696;2023-08-20T12:11:49;1.83;;;0.70;;
8857;SDS011;4465;50.904;4.696;2023-08-20T12:16:42;3.42;;;0.98;;
8857;SDS011;4465;50.904;4.696;2023-08-20T12:19:08;4.05;;;1.35;;
8857;SDS011;4465;50.904;4.696;2023-08-20T12:21:34;3.83;;;1.05;;
8857;SDS011;4465;50.904;4.696;2023-08-20T12:24:02;3.65;;;0.77;;
8857;SDS011;4465;50.904;4.696;2023-08-20T12:26:29;1.67;;;0.98;;
8857;SDS011;4465;50.904;4.696;2023-08-20T12:28:57;1.80;;;0.90;;
8857;SDS011;4465;50.904;4.696;2023-08-20T12:31:23;4.43;;;1.10;;
8857;SDS011;4465;50.904;4.696;2023-08-20T12:33:49;2.38;;;0.95;;
8857;SDS011;4465;50.904;4.696;2023-08-20T12:36:15;2.78;;;0.98;;
8857;SDS011;4465;50.904;4.696;2023-08-20T12:38:41;2.03;;;0.90;;
8857;SDS011;4465;50.904;4.696;2023-08-20T12:41:07;16.20;;;1.20;;
8857;SDS011;4465;50.904;4.696;2023-08-20T12:43:33;2.90;;;1.10;;
8857;SDS011;4465;50.904;4.696;2023-08-20T12:45:59;3.38;;;0.93;;
8857;SDS011;4465;50.904;4.696;2023-08-20T12:48:25;3.05;;;0.93;;
8857;SDS011;4465;50.904;4.696;2023-08-20T12:50:50;3.30;;;1.02;;
8857;SDS011;4465;50.904;4.696;2023-08-20T12:53:19;5.18;;;1.25;;
8857;SDS011;4465;50.904;4.696;2023-08-20T12:55:46;4.18;;;1.10;;
8857;SDS011;4465;50.904;4.696;2023-08-20T12:58:12;1.20;;;1.00;;
8857;SDS011;4465;50.904;4.696;2023-08-20T13:00:38;2.63;;;1.10;;
8857;SDS011;4465;50.904;4.696;2023-08-20T13:03:05;2.33;;;0.90;;
8857;SDS011;4465;50.904;4.696;2023-08-20T13:05:31;3.45;;;1.08;;
8857;SDS011;4465;50.904;4.696;2023-08-20T13:07:57;3.50;;;0.98;;
8857;SDS011;4465;50.904;4.696;2023-08-20T13:10:24;2.60;;;1.07;;
8857;SDS011;4465;50.904;4.696;2023-08-20T13:12:53;2.10;;;0.90;;
8857;SDS011;4465;50.904;4.696;2023-08-20T13:15:20;4.40;;;1.40;;
8857;SDS011;4465;50.904;4.696;2023-08-20T13:17:47;2.90;;;1.00;;
8857;SDS011;4465;50.904;4.696;2023-08-20T13:20:15;4.35;;;1.05;;
8857;SDS011;4465;50.904;4.696;2023-08-20T13:22:48;2.90;;;0.85;;
8857;SDS011;4465;50.904;4.696;2023-08-20T13:25:15;3.28;;;1.00;;
8857;SDS011;4465;50.904;4.696;2023-08-20T13:27:41;2.88;;;0.93;;
8857;SDS011;4465;50.904;4.696;2023-08-20T13:30:08;2.30;;;1.10;;
8857;SDS011;4465;50.904;4.696;2023-08-20T13:32:35;2.30;;;0.95;;
8857;SDS011;4465;50.904;4.696;2023-08-20T13:35:01;1.70;;;0.88;;
8857;SDS011;4465;50.904;4.696;2023-08-20T13:37:29;2.78;;;1.10;;
8857;SDS011;4465;50.904;4.696;2023-08-20T13:39:58;2.00;;;0.95;;
8857;SDS011;4465;50.904;4.696;2023-08-20T13:42:31;2.50;;;0.80;;
8857;SDS011;4465;50.904;4.696;2023-08-20T13:44:59;2.38;;;0.90;;
8857;SDS011;4465;50.904;4.696;2023-08-20T13:47:25;3.25;;;1.13;;
8857;SDS011;4465;50.904;4.696;2023-08-20T13:49:51;4.53;;;1.00;;
8857;SDS011;4465;50.904;4.696;2023-08-20T13:52:26;1.75;;;1.00;;
8857;SDS011;4465;50.904;4.696;2023-08-20T13:54:52;2.20;;;0.70;;
8857;SDS011;4465;50.904;4.696;2023-08-20T13:57:21;2.05;;;0.82;;
8857;SDS011;4465;50.904;4.696;2023-08-20T13:59:47;4.43;;;1.10;;
8857;SDS011;4465;50.904;4.696;2023-08-20T14:02:13;1.13;;;0.85;;
8857;SDS011;4465;50.904;4.696;2023-08-20T14:04:41;1.92;;;1.00;;
8857;SDS011;4465;50.904;4.696;2023-08-20T14:07:09;3.80;;;1.08;;
8857;SDS011;4465;50.904;4.696;2023-08-20T14:09:35;4.57;;;0.77;;
8857;SDS011;4465;50.904;4.696;2023-08-20T14:12:01;2.80;;;0.88;;
8857;SDS011;4465;50.904;4.696;2023-08-20T14:14:27;3.28;;;1.10;;
8857;SDS011;4465;50.904;4.696;2023-08-20T14:16:53;2.28;;;1.00;;
8857;SDS011;4465;50.904;4.696;2023-08-20T14:19:19;4.47;;;0.97;;
8857;SDS011;4465;50.904;4.696;2023-08-20T14:21:45;1.58;;;0.80;;
8857;SDS011;4465;50.904;4.696;2023-08-20T14:24:14;1.63;;;0.70;;
8857;SDS011;4465;50.904;4.696;2023-08-20T14:26:39;1.50;;;0.80;;
8857;SDS011;4465;50.904;4.696;2023-08-20T14:29:05;3.72;;;1.02;;
8857;SDS011;4465;50.904;4.696;2023-08-20T14:31:31;1.95;;;0.95;;
8857;SDS011;4465;50.904;4.696;2023-08-20T14:33:57;2.65;;;0.80;;
8857;SDS011;4465;50.904;4.696;2023-08-20T14:36:23;2.00;;;1.10;;
8857;SDS011;4465;50.904;4.696;2023-08-20T14:38:49;1.60;;;0.88;;
8857;SDS011;4465;50.904;4.696;2023-08-20T14:41:17;2.90;;;1.08;;
8857;SDS011;4465;50.904;4.696;2023-08-20T14:43:43;3.28;;;1.27;;
8857;SDS011;4465;50.904;4.696;2023-08-20T14:46:09;3.05;;;0.88;;
8857;SDS011;4465;50.904;4.696;2023-08-20T14:48:35;2.83;;;0.88;;
8857;SDS011;4465;50.904;4.696;2023-08-20T14:51:06;2.90;;;0.80;;
8857;SDS011;4465;50.904;4.696;2023-08-20T14:53:34;3.90;;;1.00;;
8857;SDS011;4465;50.904;4.696;2023-08-20T14:56:00;3.10;;;1.00;;
8857;SDS011;4465;50.904;4.696;2023-08-20T14:58:26;5.40;;;2.35;;
8857;SDS011;4465;50.904;4.696;2023-08-20T15:00:53;4.43;;;1.33;;
8857;SDS011;4465;50.904;4.696;2023-08-20T15:03:19;1.98;;;1.13;;
8857;SDS011;4465;50.904;4.696;2023-08-20T15:05:44;5.35;;;1.13;;
8857;SDS011;4465;50.904;4.696;2023-08-20T15:08:10;1.98;;;1.08;;
8857;SDS011;4465;50.904;4.696;2023-08-20T15:10:36;7.13;;;1.10;;
8857;SDS011;4465;50.904;4.696;2023-08-20T15:13:04;6.07;;;0.88;;
8857;SDS011;4465;50.904;4.696;2023-08-20T15:15:32;2.65;;;1.10;;
8857;SDS011;4465;50.904;4.696;2023-08-20T15:17:58;2.95;;;1.10;;
8857;SDS011;4465;50.904;4.696;2023-08-20T15:20:23;5.05;;;1.70;;
8857;SDS011;4465;50.904;4.696;2023-08-20T15:22:54;2.75;;;1.13;;
8857;SDS011;4465;50.904;4.696;2023-08-20T15:25:20;3.67;;;0.98;;
8857;SDS011;4465;50.904;4.696;2023-08-20T15:27:46;1.45;;;1.00;;
8857;SDS011;4465;50.904;4.696;2023-08-20T15:30:12;3.72;;;1.08;;
8857;SDS011;4465;50.904;4.696;2023-08-20T15:32:38;2.25;;;0.90;;
8857;SDS011;4465;50.904;4.696;2023-08-20T15:35:06;2.97;;;1.08;;
8857;SDS011;4465;50.904;4.696;2023-08-20T15:37:32;5.27;;;1.37;;